This is the latest recevied weather packets stored in our database for station/object OE3UKW. If no packets are shown the sender has not sent any weather packets the latest 1 day(s).
| Time | Temp. | Humidity | Pressure | Rain* | Wind** | Luminosity | Snow |
|---|---|---|---|---|---|---|---|
| 1778062271 | 25° C | 39% | 1009 hPa | 0 mm | - | 812 W/m² | - |
| 1778061671 | 24.44° C | 38% | 1009.1 hPa | 0 mm | - | 809 W/m² | - |
| 1778060471 | 23.89° C | 38% | 1009.1 hPa | 0 mm | - | 785 W/m² | - |
| 1778059871 | 24.44° C | 38% | 1009.3 hPa | 0 mm | - | 829 W/m² | - |
| 1778059271 | 24.44° C | 38% | 1009.3 hPa | 0 mm | - | 782 W/m² | - |
| 1778058671 | 23.89° C | 38% | 1009.3 hPa | 0 mm | - | 707 W/m² | - |
| 1778058071 | 23.89° C | 36% | 1009.4 hPa | 0 mm | - | 747 W/m² | - |
| 1778056871 | 23.89° C | 36% | 1009.5 hPa | 0 mm | - | 717 W/m² | - |
| 1778056271 | 23.33° C | 38% | 1009.6 hPa | 0 mm | - | 694 W/m² | - |
| 1778055071 | 22.78° C | 39% | 1009.7 hPa | 0 mm | - | 675 W/m² | - |
| 1778054471 | 22.78° C | 39% | 1009.8 hPa | 0 mm | - | 608 W/m² | - |
| 1778053870 | 22.22° C | 41% | 1009.7 hPa | 0 mm | - | 617 W/m² | - |
| 1778053271 | 21.67° C | 43% | 1009.7 hPa | 0 mm | - | 589 W/m² | - |
| 1778050870 | 21.11° C | 45% | 1009.9 hPa | 0 mm | - | 238 W/m² | - |
| 1778046070 | 16.11° C | 60% | 1009.9 hPa | 0 mm | - | 291 W/m² | - |
| 1778044870 | 14.44° C | 65% | 1009.9 hPa | 0 mm | - | 241 W/m² | - |
| 1778044270 | 13.33° C | 67% | 1009.8 hPa | 0 mm | - | 202 W/m² | - |
| 1778043670 | 12.78° C | 67% | 1009.7 hPa | 0 mm | - | 146 W/m² | - |
| 1778043070 | 12.78° C | 67% | 1009.5 hPa | 0 mm | - | 74 W/m² | - |
| 1778042470 | 12.22° C | 67% | 1009.5 hPa | 0 mm | - | 42 W/m² | - |
| 1778041870 | 12.22° C | 68% | 1009.4 hPa | 0 mm | - | 53 W/m² | - |
| 1778041270 | 11.67° C | 67% | 1009.3 hPa | 0 mm | - | 53 W/m² | - |
| 1778040670 | 11.67° C | 67% | 1009.2 hPa | 0 mm | - | 23 W/m² | - |
| 1778040070 | 11.67° C | 67% | 1009 hPa | 0 mm | - | 25 W/m² | - |
| 1778039470 | 11.67° C | 67% | 1009 hPa | 0 mm | - | 15 W/m² | - |
* Rain latest hour (hover to see other rain measurements)
** Current wind speed in m/s (hover to see current wind gust speed)